createdAt,value
2019-02-18T00:01:01.283Z,53.73
2019-02-18T00:03:30.063Z,56.25
2019-02-18T00:05:58.961Z,50.85
2019-02-18T00:08:27.808Z,56.30
2019-02-18T00:10:56.790Z,53.13
2019-02-18T00:13:25.777Z,52.83
2019-02-18T00:15:54.559Z,53.17
2019-02-18T00:18:23.871Z,56.98
2019-02-18T00:20:52.665Z,52.60
2019-02-18T00:23:21.420Z,57.50
2019-02-18T00:25:50.435Z,53.85
2019-02-18T00:28:19.203Z,51.68
2019-02-18T00:30:47.975Z,54.53
2019-02-18T00:33:16.736Z,58.20
2019-02-18T00:35:45.815Z,52.90
2019-02-18T00:38:14.604Z,51.50
2019-02-18T00:40:43.460Z,59.18
2019-02-18T00:43:12.224Z,53.60
2019-02-18T00:45:41.039Z,57.80
2019-02-18T00:48:09.847Z,50.17
2019-02-18T00:50:38.614Z,61.35
2019-02-18T00:53:07.472Z,61.28
2019-02-18T00:55:36.284Z,51.40
2019-02-18T00:58:05.130Z,54.45
2019-02-18T01:00:33.902Z,61.80
2019-02-18T01:03:02.962Z,51.80
2019-02-18T01:05:31.811Z,57.88
2019-02-18T01:08:00.662Z,54.20
2019-02-18T01:10:29.567Z,56.40
2019-02-18T01:12:58.613Z,55.75
2019-02-18T01:15:27.466Z,62.00
2019-02-18T01:17:56.296Z,65.17
2019-02-18T01:20:25.063Z,60.90
2019-02-18T01:22:54.091Z,57.25
2019-02-18T01:25:22.879Z,66.53
2019-02-18T01:27:51.663Z,62.65
2019-02-18T01:30:20.417Z,59.35
2019-02-18T01:32:49.299Z,56.63
2019-02-18T01:35:18.103Z,64.82
2019-02-18T01:37:47.012Z,47.70
2019-02-18T01:40:16.018Z,53.33
2019-02-18T01:42:44.785Z,41.70
2019-02-18T01:45:14.490Z,50.30
2019-02-18T01:47:43.272Z,52.13
2019-02-18T01:50:13.763Z,51.53
2019-02-18T01:52:42.615Z,46.92
2019-02-18T01:55:12.131Z,57.95
2019-02-18T01:57:41.213Z,49.70
2019-02-18T02:00:12.444Z,52.90
2019-02-18T02:02:41.221Z,55.65
2019-02-18T02:05:11.763Z,55.85
2019-02-18T02:07:40.899Z,57.78
2019-02-18T02:10:11.780Z,62.65
2019-02-18T02:12:40.876Z,45.03
2019-02-18T02:15:21.769Z,48.38
2019-02-18T02:17:50.584Z,51.35
2019-02-18T02:20:19.700Z,55.55
2019-02-18T02:22:48.555Z,54.48
2019-02-18T02:25:17.345Z,49.23
2019-02-18T02:27:46.422Z,65.08
2019-02-18T02:30:15.614Z,56.05
2019-02-18T02:32:44.465Z,47.53
2019-02-18T02:35:13.465Z,54.03
2019-02-18T02:37:42.248Z,53.63
2019-02-18T02:40:11.247Z,55.73
2019-02-18T02:42:40.266Z,53.55
2019-02-18T02:45:09.292Z,47.38
2019-02-18T02:47:38.074Z,47.15
2019-02-18T02:50:07.056Z,47.43
2019-02-18T02:52:36.100Z,51.02
2019-02-18T02:55:05.231Z,52.43
2019-02-18T02:57:34.259Z,49.65
2019-02-18T03:00:03.036Z,53.45
2019-02-18T03:02:31.807Z,52.45
2019-02-18T03:05:00.559Z,59.58
2019-02-18T03:07:29.559Z,47.67
2019-02-18T03:09:58.318Z,62.65
2019-02-18T03:12:27.336Z,56.08
2019-02-18T03:14:56.361Z,54.33
2019-02-18T03:17:25.381Z,62.33
2019-02-18T03:19:54.215Z,54.18
2019-02-18T03:22:23.080Z,55.35
2019-02-18T03:25:14.572Z,56.48
2019-02-18T03:27:43.614Z,54.38
2019-02-18T03:30:40.941Z,52.58
2019-02-18T03:33:10.570Z,66.45
2019-02-18T03:35:39.436Z,53.52
2019-02-18T03:38:08.472Z,56.75
2019-02-18T03:40:37.254Z,54.18
2019-02-18T03:43:06.050Z,61.85
2019-02-18T03:45:34.893Z,54.50
2019-02-18T03:48:03.664Z,53.80
2019-02-18T03:50:32.415Z,50.98
2019-02-18T03:53:01.188Z,65.17
2019-02-18T03:55:29.940Z,54.95
2019-02-18T03:57:59.155Z,71.53
2019-02-18T04:00:27.930Z,55.85
2019-02-18T04:02:56.718Z,54.20
2019-02-18T04:05:26.015Z,58.83
2019-02-18T04:07:54.836Z,59.13
2019-02-18T04:10:23.601Z,52.15
2019-02-18T04:12:52.600Z,56.35
2019-02-18T04:15:21.361Z,60.23
2019-02-18T04:17:50.168Z,56.35
2019-02-18T04:20:19.226Z,51.98
2019-02-18T04:22:48.483Z,53.08
2019-02-18T04:25:17.244Z,58.10
2019-02-18T04:27:46.019Z,53.92
2019-02-18T04:30:15.136Z,59.80
2019-02-18T04:32:43.891Z,51.37
2019-02-18T04:35:12.919Z,49.98
2019-02-18T04:37:41.667Z,51.00
2019-02-18T04:40:10.719Z,51.45
2019-02-18T04:42:39.511Z,68.97
2019-02-18T04:45:08.535Z,61.15
2019-02-18T04:47:37.525Z,51.30
2019-02-18T04:50:06.459Z,63.95
2019-02-18T04:52:35.323Z,53.90
2019-02-18T04:55:04.716Z,67.80
2019-02-18T04:57:33.514Z,51.33
2019-02-18T05:00:02.326Z,53.38
2019-02-18T05:02:31.211Z,55.48
2019-02-18T05:05:00.306Z,51.77
2019-02-18T05:07:29.220Z,57.62
2019-02-18T05:09:58.103Z,56.30
2019-02-18T05:12:26.994Z,66.20
2019-02-18T05:14:56.096Z,58.68
2019-02-18T05:17:25.222Z,66.10
2019-02-18T05:19:54.004Z,72.03
2019-02-18T05:22:23.039Z,72.95
2019-02-18T05:24:52.158Z,64.27
2019-02-18T05:27:21.225Z,64.97
2019-02-18T05:29:49.994Z,58.83
2019-02-18T05:32:18.862Z,67.70
2019-02-18T05:34:48.795Z,60.08
2019-02-18T05:37:17.558Z,56.05
2019-02-18T05:39:46.388Z,82.92
2019-02-18T05:42:15.176Z,54.53
2019-02-18T05:44:43.964Z,61.55
2019-02-18T05:47:12.759Z,59.20
2019-02-18T05:49:41.606Z,66.57
2019-02-18T05:52:10.466Z,54.83
2019-02-18T05:54:39.324Z,52.73
2019-02-18T05:57:08.145Z,51.18
2019-02-18T05:59:36.892Z,68.25
2019-02-18T06:02:05.929Z,60.92
2019-02-18T06:04:34.944Z,69.10
2019-02-18T06:07:10.938Z,71.05
2019-02-18T06:09:40.025Z,73.33
2019-02-18T06:12:09.425Z,69.67
2019-02-18T06:14:38.584Z,69.12
2019-02-18T06:17:07.687Z,69.37
2019-02-18T06:19:36.479Z,59.50
2019-02-18T06:22:05.732Z,61.53
2019-02-18T06:24:34.626Z,69.00
2019-02-18T06:27:03.421Z,85.42
2019-02-18T06:29:32.362Z,119.50
2019-02-18T06:32:01.112Z,104.03
2019-02-18T06:34:29.928Z,96.15
2019-02-18T06:36:58.769Z,104.83
2019-02-18T06:39:27.590Z,98.85
2019-02-18T06:42:02.459Z,78.95
2019-02-18T06:44:55.771Z,72.05
2019-02-18T06:47:26.727Z,77.37
2019-02-18T06:49:55.486Z,66.30
2019-02-18T06:52:24.518Z,67.37
2019-02-18T06:54:53.298Z,65.12
2019-02-18T06:57:44.224Z,56.83
2019-02-18T07:00:22.284Z,55.80
2019-02-18T07:03:08.635Z,62.50
2019-02-18T07:05:49.095Z,67.92
2019-02-18T07:08:37.771Z,63.63
2019-02-18T07:11:19.977Z,64.50
2019-02-18T07:13:48.763Z,70.20
2019-02-18T07:16:17.564Z,64.20
2019-02-18T07:18:46.347Z,65.75
2019-02-18T07:21:15.083Z,68.33
2019-02-18T07:23:43.856Z,81.15
2019-02-18T07:26:12.600Z,75.15
2019-02-18T07:28:41.412Z,54.27
2019-02-18T07:31:10.243Z,60.65
2019-02-18T07:33:39.027Z,60.17
2019-02-18T07:36:08.153Z,58.38
2019-02-18T07:38:36.967Z,61.75
2019-02-18T07:41:05.800Z,53.95
2019-02-18T07:43:34.559Z,53.15
2019-02-18T07:46:03.349Z,58.35
2019-02-18T07:48:32.139Z,54.58
2019-02-18T07:51:00.899Z,61.28
2019-02-18T07:53:29.916Z,63.25
2019-02-18T07:55:58.983Z,57.83
2019-02-18T07:58:27.988Z,63.92
2019-02-18T08:00:56.826Z,60.15
2019-02-18T08:03:25.903Z,63.45
2019-02-18T08:05:55.136Z,67.15
2019-02-18T08:08:23.930Z,65.28
2019-02-18T08:10:52.785Z,68.67
2019-02-18T08:13:21.898Z,66.02
2019-02-18T08:15:51.001Z,57.15
2019-02-18T08:18:19.863Z,63.17
2019-02-18T08:20:48.602Z,61.60
2019-02-18T08:23:17.593Z,63.35
2019-02-18T08:25:46.359Z,67.82
2019-02-18T08:28:15.210Z,63.02
2019-02-18T08:30:44.047Z,62.85
2019-02-18T08:33:12.792Z,64.62
2019-02-18T08:35:41.557Z,56.80
2019-02-18T08:38:10.347Z,59.23
2019-02-18T08:40:39.402Z,56.73
2019-02-18T08:43:08.268Z,50.23
2019-02-18T08:45:37.144Z,50.60
2019-02-18T08:48:05.998Z,54.27
2019-02-18T08:50:35.084Z,50.98
2019-02-18T08:53:03.955Z,52.78
2019-02-18T08:55:33.065Z,46.13
2019-02-18T08:58:01.846Z,48.07
2019-02-18T09:00:30.595Z,52.33
2019-02-18T09:02:59.597Z,53.30
2019-02-18T09:05:28.425Z,48.77
2019-02-18T09:07:57.500Z,49.90
2019-02-18T09:10:32.933Z,51.10
2019-02-18T09:12:56.763Z,49.23
2019-02-18T09:15:25.743Z,49.03
2019-02-18T09:17:54.751Z,45.47
2019-02-18T09:20:25.558Z,47.50
2019-02-18T09:22:59.483Z,49.13
2019-02-18T09:25:49.828Z,45.53
2019-02-18T09:28:18.872Z,44.77
2019-02-18T09:30:50.987Z,49.53
2019-02-18T09:33:20.033Z,48.60
2019-02-18T09:35:48.824Z,51.63
2019-02-18T09:38:24.803Z,48.10
2019-02-18T09:40:51.406Z,50.03
2019-02-18T09:43:19.059Z,49.27
2019-02-18T09:45:47.895Z,47.27
2019-02-18T09:48:16.866Z,49.57
2019-02-18T09:50:45.940Z,49.57
2019-02-18T09:53:14.695Z,47.87
2019-02-18T09:55:43.993Z,46.70
2019-02-18T09:58:13.323Z,46.83
2019-02-18T10:00:42.159Z,45.53
2019-02-18T10:03:10.967Z,45.77
2019-02-18T10:05:39.746Z,45.23
2019-02-18T10:08:08.597Z,44.73
2019-02-18T10:10:37.684Z,47.20
2019-02-18T10:13:06.612Z,45.30
2019-02-18T10:15:35.429Z,47.13
2019-02-18T10:18:04.366Z,46.70
2019-02-18T10:20:33.204Z,45.30
2019-02-18T10:23:02.227Z,48.70
2019-02-18T10:25:31.275Z,44.70
2019-02-18T10:28:00.086Z,43.80
2019-02-18T10:30:29.216Z,45.30
2019-02-18T10:32:58.163Z,48.27
2019-02-18T10:35:26.971Z,43.53
2019-02-18T10:37:55.732Z,46.03
2019-02-18T10:40:24.796Z,46.50
2019-02-18T10:42:53.635Z,44.07
2019-02-18T10:45:22.627Z,47.43
2019-02-18T10:47:51.637Z,43.90
2019-02-18T10:50:20.473Z,44.90
2019-02-18T10:52:49.352Z,40.87
2019-02-18T10:55:18.569Z,41.80
2019-02-18T10:57:47.688Z,45.70
2019-02-18T11:00:16.548Z,45.03
2019-02-18T11:02:45.539Z,43.73
2019-02-18T11:05:14.383Z,39.50
2019-02-18T11:07:43.461Z,39.47
2019-02-18T11:10:13.378Z,44.63
2019-02-18T11:12:42.114Z,42.67
2019-02-18T11:15:12.051Z,41.47
2019-02-18T11:17:41.084Z,40.47
2019-02-18T11:20:10.358Z,41.20
2019-02-18T11:22:40.439Z,42.17
2019-02-18T11:25:10.052Z,42.00
2019-02-18T11:27:38.943Z,40.97
2019-02-18T11:30:10.626Z,38.17
2019-02-18T11:32:39.712Z,38.23
2019-02-18T11:35:08.629Z,36.57
2019-02-18T11:37:38.195Z,38.13
2019-02-18T11:40:08.409Z,34.73
2019-02-18T11:42:37.668Z,38.47
2019-02-18T11:45:07.404Z,33.80
2019-02-18T11:47:36.233Z,36.53
2019-02-18T11:50:05.527Z,34.90
2019-02-18T11:52:34.367Z,36.40
2019-02-18T11:55:03.269Z,35.67
2019-02-18T11:57:32.074Z,34.00
2019-02-18T12:00:01.453Z,28.00
2019-02-18T12:02:30.341Z,23.80
2019-02-18T12:04:59.154Z,18.37
2019-02-18T12:07:28.030Z,19.03
2019-02-18T12:09:56.779Z,24.93
2019-02-18T12:12:25.876Z,23.47
2019-02-18T12:14:54.857Z,19.23
2019-02-18T12:17:23.895Z,18.50
2019-02-18T12:19:52.903Z,19.20
2019-02-18T12:22:21.748Z,18.60
2019-02-18T12:24:50.608Z,18.70
2019-02-18T12:27:19.449Z,22.50
2019-02-18T12:29:48.308Z,23.00
2019-02-18T12:32:17.297Z,23.23
2019-02-18T12:34:46.416Z,24.73
2019-02-18T12:37:15.280Z,26.13
2019-02-18T12:39:44.088Z,23.70
2019-02-18T12:42:13.220Z,21.70
2019-02-18T12:44:42.049Z,22.20
2019-02-18T12:47:11.224Z,22.70
2019-02-18T12:49:40.149Z,24.67
2019-02-18T12:52:10.779Z,22.77
2019-02-18T12:54:39.816Z,22.30
2019-02-18T12:57:09.001Z,20.57
2019-02-18T12:59:38.173Z,21.33
2019-02-18T13:02:07.301Z,21.70
2019-02-18T13:04:36.367Z,23.07
2019-02-18T13:07:05.267Z,22.50
2019-02-18T13:09:34.177Z,24.73
2019-02-18T13:12:02.984Z,24.07
2019-02-18T13:14:32.089Z,20.57
2019-02-18T13:17:01.416Z,23.10
2019-02-18T13:19:30.491Z,22.83
2019-02-18T13:21:59.603Z,22.10
2019-02-18T13:24:28.413Z,23.13
2019-02-18T13:26:57.588Z,21.53
2019-02-18T13:29:26.671Z,20.27
2019-02-18T13:31:55.573Z,18.43
2019-02-18T13:34:24.436Z,18.43
2019-02-18T13:36:56.091Z,19.27
2019-02-18T13:39:25.125Z,22.17
2019-02-18T13:41:54.013Z,21.10
2019-02-18T13:44:23.133Z,22.00
2019-02-18T13:46:51.968Z,24.57
2019-02-18T13:49:20.835Z,22.63
2019-02-18T13:51:56.433Z,26.67
2019-02-18T13:54:20.219Z,28.37
2019-02-18T13:56:48.987Z,30.40
2019-02-18T13:59:18.083Z,30.07
2019-02-18T14:01:46.983Z,31.37
2019-02-18T14:04:15.751Z,30.03
2019-02-18T14:06:44.588Z,28.83
2019-02-18T14:09:13.641Z,27.63
2019-02-18T14:11:42.502Z,27.90
2019-02-18T14:14:11.382Z,28.47
2019-02-18T14:16:40.391Z,26.47
2019-02-18T14:19:09.674Z,26.30
2019-02-18T14:21:38.520Z,26.40
2019-02-18T14:24:07.648Z,24.50
2019-02-18T14:26:36.809Z,25.30
2019-02-18T14:29:05.686Z,24.17
2019-02-18T14:31:34.553Z,23.50
2019-02-18T14:34:03.478Z,23.43
2019-02-18T14:36:32.231Z,25.23
2019-02-18T14:39:01.703Z,23.37
2019-02-18T14:41:30.576Z,25.00
2019-02-18T14:43:59.779Z,23.50
2019-02-18T14:46:28.646Z,22.67
2019-02-18T14:48:57.504Z,26.40
2019-02-18T14:51:26.352Z,22.37
2019-02-18T14:53:55.814Z,22.47
2019-02-18T14:56:25.077Z,25.20
2019-02-18T14:58:53.974Z,23.00
2019-02-18T15:01:22.807Z,21.43
2019-02-18T15:03:51.681Z,23.70
2019-02-18T15:06:20.671Z,22.58
2019-02-18T15:08:49.892Z,21.57
2019-02-18T15:11:18.840Z,23.50
2019-02-18T15:13:47.770Z,23.57
2019-02-18T15:16:16.960Z,24.77
2019-02-18T15:18:45.843Z,23.35
2019-02-18T15:21:15.009Z,21.30
2019-02-18T15:23:44.120Z,24.02
2019-02-18T15:26:13.027Z,24.02
2019-02-18T15:28:42.203Z,26.73
2019-02-18T15:31:11.168Z,25.50
2019-02-18T15:33:40.255Z,23.77
2019-02-18T15:36:09.512Z,24.00
2019-02-18T15:38:38.859Z,24.23
2019-02-18T15:41:11.094Z,28.90
2019-02-18T15:43:40.784Z,29.72
2019-02-18T15:46:09.736Z,27.30
2019-02-18T15:48:39.673Z,27.58
2019-02-18T15:51:08.496Z,24.10
2019-02-18T15:53:38.144Z,24.37
2019-02-18T15:56:07.000Z,26.75
2019-02-18T15:58:36.350Z,26.15
2019-02-18T16:01:05.652Z,24.98
2019-02-18T16:03:34.708Z,29.65
2019-02-18T16:06:03.914Z,26.17
2019-02-18T16:08:33.747Z,26.87
2019-02-18T16:11:03.051Z,25.43
2019-02-18T16:13:32.270Z,25.00
2019-02-18T16:16:01.118Z,25.50
2019-02-18T16:18:30.152Z,25.95
2019-02-18T16:20:59.004Z,27.00
2019-02-18T16:23:28.183Z,25.62
2019-02-18T16:25:57.012Z,26.90
2019-02-18T16:28:25.846Z,27.75
2019-02-18T16:30:54.947Z,26.77
2019-02-18T16:33:23.797Z,24.15
2019-02-18T16:35:52.650Z,28.98
2019-02-18T16:38:21.526Z,26.02
2019-02-18T16:40:50.659Z,27.65
2019-02-18T16:43:20.704Z,25.12
2019-02-18T16:45:49.495Z,27.98
2019-02-18T16:48:18.648Z,23.73
2019-02-18T16:50:47.859Z,26.15
2019-02-18T16:53:17.663Z,31.02
2019-02-18T16:55:46.422Z,26.75
2019-02-18T16:58:15.270Z,27.42
2019-02-18T17:00:44.192Z,28.67
2019-02-18T17:03:13.035Z,27.15
2019-02-18T17:05:42.924Z,29.05
2019-02-18T17:08:12.446Z,24.87
2019-02-18T17:10:41.511Z,26.50
2019-02-18T17:13:10.778Z,25.92
2019-02-18T17:15:39.599Z,28.98
2019-02-18T17:18:08.486Z,24.05
2019-02-18T17:20:37.571Z,27.75
2019-02-18T17:23:06.375Z,27.60
2019-02-18T17:25:35.915Z,29.95
2019-02-18T17:28:04.750Z,27.62
2019-02-18T17:30:33.498Z,28.50
2019-02-18T17:33:03.206Z,23.95
2019-02-18T17:35:32.030Z,25.40
2019-02-18T17:38:00.824Z,27.05
2019-02-18T17:40:29.666Z,31.75
2019-02-18T17:42:58.827Z,25.50
2019-02-18T17:45:28.105Z,29.23
2019-02-18T17:47:56.926Z,25.85
2019-02-18T17:50:26.832Z,27.65
2019-02-18T17:52:55.698Z,24.35
2019-02-18T17:55:24.851Z,26.10
2019-02-18T17:57:53.681Z,29.85
2019-02-18T18:00:24.515Z,23.38
2019-02-18T18:02:53.675Z,26.70
2019-02-18T18:05:22.570Z,28.05
2019-02-18T18:07:51.940Z,27.95
2019-02-18T18:10:21.016Z,25.02
2019-02-18T18:12:50.254Z,26.33
2019-02-18T18:15:19.270Z,26.33
2019-02-18T18:17:48.197Z,26.85
2019-02-18T18:20:17.144Z,33.35
2019-02-18T18:22:45.958Z,33.02
2019-02-18T18:25:15.120Z,29.90
2019-02-18T18:27:43.982Z,34.08
2019-02-18T18:30:13.334Z,32.53
2019-02-18T18:32:42.958Z,27.58
2019-02-18T18:35:11.956Z,26.48
2019-02-18T18:37:40.916Z,26.02
2019-02-18T18:40:11.404Z,27.62
2019-02-18T18:42:40.573Z,32.45
2019-02-18T18:45:10.863Z,29.92
2019-02-18T18:47:39.799Z,23.98
2019-02-18T18:50:11.380Z,24.23
2019-02-18T18:52:40.328Z,23.32
2019-02-18T18:55:09.579Z,25.25
2019-02-18T18:57:38.362Z,27.77
2019-02-18T19:00:09.329Z,22.80
2019-02-18T19:02:38.400Z,21.20
2019-02-18T19:05:07.564Z,25.55
2019-02-18T19:07:36.764Z,24.45
2019-02-18T19:10:06.042Z,26.05
2019-02-18T19:12:35.520Z,23.02
2019-02-18T19:15:04.700Z,22.75
2019-02-18T19:17:33.527Z,24.52
2019-02-18T19:20:02.913Z,23.05
2019-02-18T19:22:32.543Z,25.23
2019-02-18T19:25:01.584Z,22.15
2019-02-18T19:27:30.391Z,23.12
2019-02-18T19:29:59.468Z,22.32
2019-02-18T19:32:28.214Z,24.87
2019-02-18T19:34:56.955Z,23.75
2019-02-18T19:37:26.129Z,23.87
2019-02-18T19:39:54.983Z,24.25
2019-02-18T19:42:23.861Z,25.68
2019-02-18T19:44:52.713Z,20.10
2019-02-18T19:47:21.571Z,24.98
2019-02-18T19:49:50.464Z,24.70
2019-02-18T19:52:19.578Z,27.62
2019-02-18T19:54:48.375Z,23.30
2019-02-18T19:57:17.243Z,27.82
2019-02-18T19:59:45.998Z,27.32
2019-02-18T20:02:14.773Z,20.57
2019-02-18T20:04:43.610Z,25.70
2019-02-18T20:07:12.887Z,23.38
2019-02-18T20:09:41.679Z,23.60
2019-02-18T20:12:10.423Z,22.85
2019-02-18T20:14:39.196Z,26.75
2019-02-18T20:17:08.077Z,22.60
2019-02-18T20:19:36.908Z,24.35
2019-02-18T20:22:06.178Z,25.27
2019-02-18T20:24:34.956Z,24.95
2019-02-18T20:27:03.816Z,23.77
2019-02-18T20:29:32.747Z,22.02
2019-02-18T20:32:01.935Z,20.30
2019-02-18T20:34:30.855Z,25.02
2019-02-18T20:37:00.024Z,24.32
2019-02-18T20:39:29.107Z,25.27
2019-02-18T20:41:57.912Z,26.62
2019-02-18T20:44:27.210Z,22.07
2019-02-18T20:46:55.990Z,25.02
2019-02-18T20:49:25.093Z,24.50
2019-02-18T20:51:54.439Z,25.97
2019-02-18T20:54:23.286Z,27.75
2019-02-18T20:56:52.122Z,26.15
2019-02-18T20:59:20.978Z,32.38
2019-02-18T21:01:50.027Z,27.15
2019-02-18T21:04:18.887Z,27.95
2019-02-18T21:06:47.968Z,31.00
2019-02-18T21:09:16.822Z,28.35
2019-02-18T21:11:45.691Z,24.52
2019-02-18T21:14:16.284Z,24.67
2019-02-18T21:16:45.223Z,25.05
2019-02-18T21:19:14.404Z,26.27
2019-02-18T21:21:43.829Z,24.85
2019-02-18T21:24:14.625Z,25.70
2019-02-18T21:26:43.374Z,26.37
2019-02-18T21:29:12.201Z,29.15
2019-02-18T21:31:41.526Z,27.87
2019-02-18T21:34:10.383Z,27.55
2019-02-18T21:36:39.260Z,32.63
2019-02-18T21:39:12.427Z,27.05
2019-02-18T21:41:41.326Z,27.22
2019-02-18T21:44:10.082Z,31.07
2019-02-18T21:46:38.891Z,25.25
2019-02-18T21:49:07.768Z,27.77
2019-02-18T21:51:36.699Z,26.50
2019-02-18T21:54:05.680Z,28.25
2019-02-18T21:56:34.506Z,28.75
2019-02-18T21:59:03.775Z,28.05
2019-02-18T22:01:32.748Z,32.08
2019-02-18T22:04:01.614Z,27.17
2019-02-18T22:06:30.662Z,26.73
2019-02-18T22:08:59.461Z,29.20
2019-02-18T22:11:28.327Z,24.80
2019-02-18T22:13:57.273Z,30.60
2019-02-18T22:16:26.148Z,30.97
2019-02-18T22:18:56.473Z,25.80
2019-02-18T22:21:25.997Z,29.57
2019-02-18T22:23:54.942Z,28.77
2019-02-18T22:26:23.782Z,24.75
2019-02-18T22:28:52.863Z,29.12
2019-02-18T22:31:22.019Z,25.00
2019-02-18T22:33:51.420Z,26.55
2019-02-18T22:36:20.246Z,26.80
2019-02-18T22:38:50.058Z,28.52
2019-02-18T22:41:19.205Z,29.12
2019-02-18T22:43:48.304Z,27.75
2019-02-18T22:46:17.180Z,26.02
2019-02-18T22:48:46.103Z,29.85
2019-02-18T22:51:15.422Z,32.05
2019-02-18T22:53:44.880Z,29.90
2019-02-18T22:56:13.856Z,31.40
2019-02-18T22:58:42.738Z,28.27
2019-02-18T23:01:11.823Z,25.12
2019-02-18T23:03:40.762Z,28.10
2019-02-18T23:06:09.539Z,30.77
2019-02-18T23:08:38.410Z,31.80
2019-02-18T23:11:07.539Z,34.78
2019-02-18T23:13:36.378Z,29.95
2019-02-18T23:16:05.319Z,34.00
2019-02-18T23:18:34.560Z,28.95
2019-02-18T23:21:03.387Z,35.40
2019-02-18T23:23:32.295Z,31.45
2019-02-18T23:26:02.011Z,27.37
2019-02-18T23:28:30.902Z,31.23
2019-02-18T23:30:59.946Z,29.92
2019-02-18T23:33:29.279Z,32.50
2019-02-18T23:35:58.178Z,32.28
2019-02-18T23:38:27.017Z,24.80
2019-02-18T23:40:56.327Z,33.65
2019-02-18T23:43:25.184Z,30.95
2019-02-18T23:45:54.103Z,30.52
2019-02-18T23:48:22.975Z,30.85
2019-02-18T23:50:52.072Z,30.52
2019-02-18T23:53:20.898Z,33.00
2019-02-18T23:55:49.916Z,31.95
2019-02-18T23:58:19.020Z,31.87
